Startpagina
METAR-TAF:

METAR-TAF

Vliegvelden :

Resolute, Nunavut, Canada

breedte: 74-43N, lengte: 094-59W, hoogte: 67 m

Actueel weer

Dit bericht is 1 uur en het 8 minuten geleden gemaakt, om 10:00 UTC
Wind 19 kt uit het zuidzuidoosten
Temperatuur -15°C
Vochtigheid 60%
Druk 1034 hPa
Zicht: 24.1 km
Geheel bewolkt op 22000 ft

METAR: CYRB 051000Z 16019KT 15SM OVC220 M15/M21 A3054 RMK CS8 SLP354

Tijdstip: 06:08 (11:08 UTC)

Verwachting

Dit bericht is 5 uur en het 29 minuten geleden gemaakt, om 05:39 UTC
Verwachting geldig van 05 om 06 UTC tot 06 om 06 UTC
Wind 15 kt uit het zuidzuidoosten
Zicht: 10 km
Gebroken wolken op 18000 ft

TAF: CYRB 050539Z 0506/0606 16015KT P6SM BKN180 RMK NXT FCST BY 051200Z

Waarnemingen en weersverwachtingen van meer dan 4000 vliegvelden (METAR en TAF).

De beschikbare stations zijn de gele en rode punten op de kaart.

Ga met uw muis naar het station om de naam te zien.

Klik dan om waarnemingen en weersverwachtingen te zien.

kaart wijzigen: klik op de groene knoppen met een zwart kruis om in te zoomen, op de groene knop met een streepje om uit te zoomen of op de groene pijlen voor aangrenzende kaarten.


METAR-TAF: